createdAt,value
2017-12-10T00:01:42.917Z,22.00
2017-12-10T00:04:10.578Z,17.60
2017-12-10T00:06:38.193Z,14.70
2017-12-10T00:09:06.595Z,17.23
2017-12-10T00:11:34.351Z,15.77
2017-12-10T00:14:02.722Z,16.43
2017-12-10T00:16:31.047Z,16.30
2017-12-10T00:18:59.082Z,16.27
2017-12-10T00:21:27.444Z,14.37
2017-12-10T00:23:55.192Z,17.27
2017-12-10T00:26:22.998Z,17.53
2017-12-10T00:28:50.690Z,19.00
2017-12-10T00:31:19.190Z,15.10
2017-12-10T00:33:46.779Z,14.03
2017-12-10T00:36:15.127Z,17.47
2017-12-10T00:38:42.721Z,18.70
2017-12-10T00:41:11.065Z,19.27
2017-12-10T00:43:38.710Z,15.63
2017-12-10T00:46:06.306Z,15.63
2017-12-10T00:48:33.862Z,16.23
2017-12-10T00:51:01.692Z,16.73
2017-12-10T00:53:29.350Z,13.10
2017-12-10T00:55:56.932Z,23.27
2017-12-10T00:58:24.519Z,13.97
2017-12-10T01:00:52.170Z,14.47
2017-12-10T01:03:19.847Z,15.23
2017-12-10T01:05:47.459Z,19.33
2017-12-10T01:08:15.330Z,16.60
2017-12-10T01:10:43.266Z,13.37
2017-12-10T01:13:11.591Z,15.50
2017-12-10T01:15:39.151Z,15.83
2017-12-10T01:18:06.763Z,13.57
2017-12-10T01:20:35.132Z,15.37
2017-12-10T01:23:03.842Z,16.53
2017-12-10T01:25:31.410Z,17.47
2017-12-10T01:27:59.006Z,17.40
2017-12-10T01:30:26.693Z,16.03
2017-12-10T01:32:54.411Z,14.10
2017-12-10T01:35:22.027Z,16.90
2017-12-10T01:37:49.624Z,15.40
2017-12-10T01:40:17.215Z,17.73
2017-12-10T01:42:44.802Z,17.60
2017-12-10T01:45:13.154Z,18.77
2017-12-10T01:47:40.769Z,21.50
2017-12-10T01:50:08.384Z,15.60
2017-12-10T01:52:35.966Z,12.67
2017-12-10T01:55:03.838Z,17.40
2017-12-10T01:57:32.178Z,13.53
2017-12-10T01:59:59.761Z,16.37
2017-12-10T02:02:27.380Z,14.90
2017-12-10T02:04:55.171Z,13.07
2017-12-10T02:07:22.757Z,11.73
2017-12-10T02:09:50.619Z,13.57
2017-12-10T02:12:18.183Z,13.50
2017-12-10T02:14:45.846Z,14.87
2017-12-10T02:17:13.693Z,15.03
2017-12-10T02:19:41.327Z,13.67
2017-12-10T02:22:09.111Z,12.67
2017-12-10T02:24:37.060Z,14.33
2017-12-10T02:27:04.631Z,13.93
2017-12-10T02:29:32.242Z,15.37
2017-12-10T02:32:00.226Z,13.47
2017-12-10T02:34:27.832Z,13.07
2017-12-10T02:36:56.384Z,13.93
2017-12-10T02:39:24.003Z,13.63
2017-12-10T02:41:51.564Z,14.30
2017-12-10T02:44:19.159Z,15.07
2017-12-10T02:46:46.728Z,17.90
2017-12-10T02:49:14.418Z,16.17
2017-12-10T02:51:41.994Z,12.90
2017-12-10T02:54:09.563Z,14.10
2017-12-10T02:56:37.162Z,13.47
2017-12-10T02:59:05.223Z,12.13
2017-12-10T03:01:32.857Z,12.10
2017-12-10T03:04:00.490Z,12.03
2017-12-10T03:06:28.889Z,13.23
2017-12-10T03:08:56.496Z,12.80
2017-12-10T03:11:24.056Z,11.33
2017-12-10T03:13:51.678Z,12.30
2017-12-10T03:16:19.310Z,12.50
2017-12-10T03:18:46.863Z,10.53
2017-12-10T03:21:14.534Z,9.00
2017-12-10T03:23:42.165Z,9.87
2017-12-10T03:26:09.783Z,12.90
2017-12-10T03:28:37.406Z,10.10
2017-12-10T03:31:05.020Z,8.90
2017-12-10T03:33:32.783Z,6.90
2017-12-10T03:36:01.174Z,7.00
2017-12-10T03:38:29.592Z,10.67
2017-12-10T03:40:57.153Z,10.93
2017-12-10T03:43:24.738Z,9.60
2017-12-10T03:45:52.335Z,6.67
2017-12-10T03:48:19.931Z,13.53
2017-12-10T03:50:47.582Z,9.17
2017-12-10T03:53:15.167Z,10.30
2017-12-10T03:55:42.754Z,8.50
2017-12-10T03:58:10.415Z,7.47
2017-12-10T04:00:38.002Z,7.37
2017-12-10T04:03:05.594Z,7.37
2017-12-10T04:05:33.214Z,8.17
2017-12-10T04:08:00.770Z,6.90
2017-12-10T04:10:28.369Z,6.03
2017-12-10T04:12:55.927Z,8.67
2017-12-10T04:15:23.558Z,17.73
2017-12-10T04:17:51.248Z,11.80
2017-12-10T04:20:18.862Z,10.47
2017-12-10T04:22:46.742Z,10.97
2017-12-10T04:25:14.415Z,7.80
2017-12-10T04:27:42.767Z,8.03
2017-12-10T04:30:10.333Z,7.53
2017-12-10T04:32:38.663Z,4.90
2017-12-10T04:35:06.235Z,8.93
2017-12-10T04:37:33.875Z,8.00
2017-12-10T04:40:01.482Z,5.10
2017-12-10T04:42:29.071Z,4.93
2017-12-10T04:44:57.551Z,6.90
2017-12-10T04:47:25.615Z,5.20
2017-12-10T04:49:53.225Z,3.27
2017-12-10T04:52:21.459Z,6.07
2017-12-10T04:54:49.058Z,6.23
2017-12-10T04:57:16.654Z,6.20
2017-12-10T04:59:44.296Z,6.00
2017-12-10T05:02:11.901Z,6.00
2017-12-10T05:04:39.538Z,4.83
2017-12-10T05:07:07.217Z,5.90
2017-12-10T05:09:35.611Z,4.80
2017-12-10T05:12:03.372Z,5.70
2017-12-10T05:14:31.175Z,7.43
2017-12-10T05:16:58.794Z,4.57
2017-12-10T05:19:26.361Z,5.83
2017-12-10T05:21:53.963Z,6.73
2017-12-10T05:24:21.522Z,4.60
2017-12-10T05:26:49.134Z,4.87
2017-12-10T05:29:17.601Z,5.37
2017-12-10T05:31:45.203Z,8.67
2017-12-10T05:34:12.838Z,5.13
2017-12-10T05:36:40.480Z,4.17
2017-12-10T05:39:08.163Z,4.17
2017-12-10T05:41:36.520Z,8.90
2017-12-10T05:44:04.084Z,6.80
2017-12-10T05:46:31.665Z,5.73
2017-12-10T05:49:00.239Z,5.70
2017-12-10T05:51:28.469Z,6.30
2017-12-10T05:53:56.062Z,4.43
2017-12-10T05:56:23.651Z,8.40
2017-12-10T05:58:52.761Z,7.63
2017-12-10T06:01:20.414Z,7.63
2017-12-10T06:03:48.771Z,5.37
2017-12-10T06:06:16.640Z,10.43
2017-12-10T06:08:44.364Z,10.90
2017-12-10T06:11:12.532Z,7.60
2017-12-10T06:13:40.180Z,6.53
2017-12-10T06:16:07.761Z,4.60
2017-12-10T06:18:35.341Z,6.90
2017-12-10T06:21:02.926Z,7.63
2017-12-10T06:23:30.559Z,5.40
2017-12-10T06:25:58.120Z,4.37
2017-12-10T06:28:25.737Z,5.37
2017-12-10T06:30:53.361Z,6.97
2017-12-10T06:33:21.651Z,7.60
2017-12-10T06:35:49.276Z,17.13
2017-12-10T06:38:16.835Z,8.23
2017-12-10T06:40:44.462Z,6.00
2017-12-10T06:43:12.083Z,4.50
2017-12-10T06:45:39.696Z,6.00
2017-12-10T06:48:07.301Z,7.13
2017-12-10T06:50:34.884Z,5.73
2017-12-10T06:53:02.448Z,4.90
2017-12-10T06:55:30.086Z,6.37
2017-12-10T06:57:57.701Z,6.00
2017-12-10T07:00:28.580Z,5.17
2017-12-10T07:02:56.631Z,5.83
2017-12-10T07:05:24.191Z,7.73
2017-12-10T07:07:51.771Z,4.83
2017-12-10T07:10:20.155Z,4.20
2017-12-10T07:12:47.789Z,5.77
2017-12-10T07:15:15.379Z,5.23
2017-12-10T07:17:43.009Z,6.00
2017-12-10T07:20:10.702Z,28.67
2017-12-10T07:22:38.378Z,4.43
2017-12-10T07:25:05.994Z,6.63
2017-12-10T07:27:33.556Z,5.03
2017-12-10T07:30:01.196Z,6.67
2017-12-10T07:32:28.751Z,4.53
2017-12-10T07:34:57.530Z,4.80
2017-12-10T07:37:25.438Z,4.30
2017-12-10T07:39:53.007Z,15.20
2017-12-10T07:42:20.560Z,8.10
2017-12-10T07:44:48.119Z,5.07
2017-12-10T07:47:15.737Z,5.33
2017-12-10T07:49:43.299Z,11.77
2017-12-10T07:52:10.980Z,5.90
2017-12-10T07:54:38.611Z,5.57
2017-12-10T07:57:06.232Z,4.83
2017-12-10T07:59:33.786Z,4.33
2017-12-10T08:02:01.395Z,6.93
2017-12-10T08:04:29.003Z,6.67
2017-12-10T08:06:56.582Z,5.90
2017-12-10T08:09:24.248Z,4.37
2017-12-10T08:11:51.804Z,5.87
2017-12-10T08:14:20.215Z,5.40
2017-12-10T08:16:47.828Z,4.17
2017-12-10T08:19:15.390Z,4.67
2017-12-10T08:21:43.070Z,7.57
2017-12-10T08:24:10.788Z,4.60
2017-12-10T08:26:46.352Z,34.67
2017-12-10T08:29:13.922Z,6.73
2017-12-10T08:31:41.551Z,4.10
2017-12-10T08:34:09.143Z,4.03
2017-12-10T08:36:36.827Z,5.63
2017-12-10T08:39:04.967Z,4.77
2017-12-10T08:41:32.626Z,11.47
2017-12-10T08:44:00.327Z,7.93
2017-12-10T08:46:27.938Z,6.67
2017-12-10T08:48:55.492Z,7.30
2017-12-10T08:51:23.181Z,4.20
2017-12-10T08:53:50.817Z,5.57
2017-12-10T08:56:18.430Z,4.13
2017-12-10T08:58:46.035Z,7.13
2017-12-10T09:01:14.398Z,5.73
2017-12-10T09:03:42.131Z,9.60
2017-12-10T09:06:09.767Z,5.53
2017-12-10T09:08:37.380Z,4.47
2017-12-10T09:11:05.120Z,5.73
2017-12-10T09:13:32.679Z,4.27
2017-12-10T09:16:00.249Z,9.10
2017-12-10T09:18:28.014Z,7.87
2017-12-10T09:20:55.582Z,6.10
2017-12-10T09:23:24.020Z,5.33
2017-12-10T09:25:51.586Z,4.17
2017-12-10T09:28:19.171Z,6.27
2017-12-10T09:30:46.793Z,3.43
2017-12-10T09:33:14.412Z,5.20
2017-12-10T09:35:42.797Z,5.90
2017-12-10T09:38:11.214Z,14.40
2017-12-10T09:40:38.898Z,6.67
2017-12-10T09:43:06.443Z,3.90
2017-12-10T09:45:34.039Z,3.63
2017-12-10T09:48:01.588Z,6.30
2017-12-10T09:50:29.194Z,5.63
2017-12-10T09:52:56.911Z,5.80
2017-12-10T09:55:24.484Z,5.03
2017-12-10T09:57:52.236Z,5.10
2017-12-10T10:00:20.511Z,4.87
2017-12-10T10:02:48.087Z,4.73
2017-12-10T10:05:15.696Z,4.33
2017-12-10T10:07:43.375Z,6.53
2017-12-10T10:10:11.226Z,3.37
2017-12-10T10:12:38.818Z,4.00
2017-12-10T10:15:06.415Z,3.37
2017-12-10T10:20:08.024Z,3.83
2017-12-10T10:22:35.576Z,3.33
2017-12-10T10:25:03.203Z,3.93
2017-12-10T10:27:30.909Z,3.27
2017-12-10T10:29:58.468Z,8.60
2017-12-10T10:32:26.035Z,4.40
2017-12-10T10:34:53.698Z,5.97
2017-12-10T10:37:21.334Z,4.60
2017-12-10T10:39:49.049Z,3.87
2017-12-10T10:42:16.673Z,5.00
2017-12-10T10:44:44.241Z,4.03
2017-12-10T10:47:12.210Z,3.40
2017-12-10T10:49:39.760Z,4.17
2017-12-10T10:52:08.469Z,5.70
2017-12-10T10:54:36.070Z,7.13
2017-12-10T10:57:03.759Z,5.20
2017-12-10T10:59:31.520Z,5.03
2017-12-10T11:01:59.070Z,7.83
2017-12-10T11:04:27.436Z,4.83
2017-12-10T11:06:54.991Z,3.57
2017-12-10T11:09:22.586Z,6.33
2017-12-10T11:11:50.131Z,4.23
2017-12-10T11:14:18.511Z,4.30
2017-12-10T11:16:46.835Z,6.53
2017-12-10T11:19:14.464Z,3.80
2017-12-10T11:21:42.670Z,4.80
2017-12-10T11:24:10.276Z,4.67
2017-12-10T11:26:37.844Z,3.60
2017-12-10T11:29:05.421Z,5.47
2017-12-10T11:31:33.019Z,4.53
2017-12-10T11:34:00.762Z,5.13
2017-12-10T11:36:28.375Z,4.20
2017-12-10T11:38:56.856Z,4.57
2017-12-10T11:41:25.471Z,3.67
2017-12-10T11:43:53.082Z,4.53
2017-12-10T11:46:20.921Z,3.70
2017-12-10T11:48:48.585Z,5.50
2017-12-10T11:51:16.404Z,6.10
2017-12-10T11:53:44.088Z,3.87
2017-12-10T11:56:11.726Z,5.33
2017-12-10T11:58:39.337Z,4.83
2017-12-10T12:01:07.129Z,6.33
2017-12-10T12:03:36.294Z,2.87
2017-12-10T12:06:03.906Z,3.63
2017-12-10T12:08:31.568Z,4.43
2017-12-10T12:10:59.236Z,5.03
2017-12-10T12:13:26.835Z,8.70
2017-12-10T12:15:54.400Z,7.53
2017-12-10T12:18:22.130Z,6.90
2017-12-10T12:20:49.745Z,4.70
2017-12-10T12:23:17.326Z,5.23
2017-12-10T12:25:44.944Z,4.00
2017-12-10T12:28:12.703Z,6.90
2017-12-10T12:30:40.273Z,8.57
2017-12-10T12:33:07.827Z,4.60
2017-12-10T12:35:35.386Z,3.00
2017-12-10T12:38:03.031Z,5.43
2017-12-10T12:40:30.667Z,4.10
2017-12-10T12:42:59.569Z,4.33
2017-12-10T12:45:27.897Z,5.03
2017-12-10T12:47:55.451Z,3.87
2017-12-10T12:50:23.036Z,4.17
2017-12-10T12:52:51.424Z,5.43
2017-12-10T12:55:18.988Z,4.60
2017-12-10T12:57:46.585Z,4.13
2017-12-10T13:00:14.134Z,3.47
2017-12-10T13:02:41.830Z,2.60
2017-12-10T13:05:09.427Z,3.67
2017-12-10T13:07:37.027Z,7.60
2017-12-10T13:10:04.572Z,3.70
2017-12-10T13:12:32.930Z,5.73
2017-12-10T13:15:01.287Z,3.63
2017-12-10T13:17:28.891Z,3.77
2017-12-10T13:19:56.532Z,5.67
2017-12-10T13:22:24.839Z,7.10
2017-12-10T13:24:53.291Z,4.30
2017-12-10T13:27:21.011Z,4.27
2017-12-10T13:29:48.591Z,2.60
2017-12-10T13:32:16.213Z,6.50
2017-12-10T13:34:43.808Z,4.20
2017-12-10T13:37:11.367Z,4.40
2017-12-10T13:39:39.060Z,4.73
2017-12-10T13:42:06.692Z,6.67
2017-12-10T13:44:34.604Z,3.40
2017-12-10T13:47:02.231Z,5.00
2017-12-10T13:49:29.842Z,6.37
2017-12-10T13:51:57.439Z,5.90
2017-12-10T13:54:25.012Z,5.40
2017-12-10T13:56:52.716Z,5.67
2017-12-10T13:59:21.071Z,4.07
2017-12-10T14:01:48.859Z,5.30
2017-12-10T14:04:16.455Z,4.37
2017-12-10T14:06:44.056Z,4.00
2017-12-10T14:09:11.698Z,4.00
2017-12-10T14:11:39.745Z,4.27
2017-12-10T14:14:07.556Z,5.97
2017-12-10T14:16:36.628Z,6.87
2017-12-10T14:19:04.330Z,4.07
2017-12-10T14:21:32.063Z,3.70
2017-12-10T14:23:59.605Z,6.20
2017-12-10T14:26:27.358Z,5.07
2017-12-10T14:28:54.978Z,2.80
2017-12-10T14:31:23.343Z,3.23
2017-12-10T14:33:50.927Z,5.60
2017-12-10T14:36:18.561Z,5.63
2017-12-10T14:38:46.128Z,3.73
2017-12-10T14:41:13.739Z,3.17
2017-12-10T14:43:41.310Z,5.20
2017-12-10T14:46:09.741Z,6.10
2017-12-10T14:48:37.300Z,6.33
2017-12-10T14:51:05.630Z,5.10
2017-12-10T14:53:33.522Z,6.03
2017-12-10T14:56:01.118Z,3.80
2017-12-10T14:58:29.438Z,4.87
2017-12-10T15:00:57.035Z,6.30
2017-12-10T15:03:25.466Z,5.33
2017-12-10T15:05:53.183Z,16.20
2017-12-10T15:08:20.769Z,4.17
2017-12-10T15:10:48.386Z,3.00
2017-12-10T15:13:15.956Z,3.37
2017-12-10T15:15:43.526Z,4.63
2017-12-10T15:18:12.007Z,4.53
2017-12-10T15:20:39.653Z,4.53
2017-12-10T15:23:07.337Z,4.27
2017-12-10T15:25:35.150Z,4.90
2017-12-10T15:28:02.746Z,4.33
2017-12-10T15:30:30.364Z,4.07
2017-12-10T15:32:57.969Z,4.70
2017-12-10T15:35:27.057Z,6.00
2017-12-10T15:37:55.444Z,6.33
2017-12-10T15:40:23.028Z,4.93
2017-12-10T15:42:50.629Z,5.13
2017-12-10T15:45:18.283Z,4.10
2017-12-10T15:47:46.151Z,5.23
2017-12-10T15:50:13.813Z,3.57
2017-12-10T15:52:41.420Z,6.37
2017-12-10T15:55:10.776Z,6.13
2017-12-10T15:57:38.375Z,5.17
2017-12-10T16:00:05.979Z,6.17
2017-12-10T16:02:33.722Z,7.53
2017-12-10T16:05:02.043Z,6.37
2017-12-10T16:07:29.636Z,4.60
2017-12-10T16:09:57.786Z,5.57
2017-12-10T16:12:25.394Z,4.33
2017-12-10T16:14:53.768Z,5.87
2017-12-10T16:17:21.380Z,3.73
2017-12-10T16:19:48.973Z,3.90
2017-12-10T16:22:16.558Z,4.50
2017-12-10T16:24:44.212Z,5.87
2017-12-10T16:27:12.558Z,4.97
2017-12-10T16:29:40.132Z,6.13
2017-12-10T16:32:07.727Z,4.20
2017-12-10T16:34:36.055Z,5.07
2017-12-10T16:37:03.646Z,5.07
2017-12-10T16:39:31.205Z,3.63
2017-12-10T16:41:58.819Z,8.30
2017-12-10T16:44:26.394Z,5.30
2017-12-10T16:46:53.989Z,3.67
2017-12-10T16:49:21.587Z,6.73
2017-12-10T16:51:49.143Z,7.17
2017-12-10T16:54:16.747Z,6.43
2017-12-10T16:56:44.299Z,7.63
2017-12-10T16:59:11.867Z,5.53
2017-12-10T17:01:39.442Z,7.90
2017-12-10T17:04:07.000Z,7.77
2017-12-10T17:06:34.573Z,7.17
2017-12-10T17:09:02.282Z,7.50
2017-12-10T17:11:30.199Z,7.30
2017-12-10T17:13:57.915Z,7.93
2017-12-10T17:16:25.629Z,8.73
2017-12-10T17:18:53.240Z,7.63
2017-12-10T17:21:21.981Z,12.03
2017-12-10T17:23:49.733Z,8.23
2017-12-10T17:26:17.307Z,11.23
2017-12-10T17:28:45.635Z,8.83
2017-12-10T17:31:13.235Z,10.63
2017-12-10T17:33:40.889Z,10.73
2017-12-10T17:36:08.919Z,11.07
2017-12-10T17:38:36.521Z,6.33
2017-12-10T17:41:04.098Z,12.87
2017-12-10T17:43:31.639Z,7.80
2017-12-10T17:45:59.274Z,11.43
2017-12-10T17:48:26.881Z,11.70
2017-12-10T17:50:55.243Z,17.93
2017-12-10T17:53:23.627Z,9.97
2017-12-10T17:55:51.187Z,14.00
2017-12-10T17:58:18.837Z,7.33
2017-12-10T18:00:46.607Z,21.10
2017-12-10T18:03:14.275Z,23.30
2017-12-10T18:05:41.839Z,19.77
2017-12-10T18:08:09.439Z,24.97
2017-12-10T18:10:37.014Z,29.37
2017-12-10T18:13:05.087Z,33.73
2017-12-10T18:15:32.794Z,43.57
2017-12-10T18:18:00.390Z,35.40
2017-12-10T18:20:27.994Z,26.30
2017-12-10T18:22:55.596Z,36.03
2017-12-10T18:25:23.935Z,40.50
2017-12-10T18:27:51.651Z,30.97
2017-12-10T18:30:19.271Z,23.03
2017-12-10T18:32:46.883Z,40.63
2017-12-10T18:35:14.978Z,33.37
2017-12-10T18:37:42.733Z,30.97
2017-12-10T18:40:10.427Z,26.10
2017-12-10T18:42:38.195Z,29.13
2017-12-10T18:45:05.862Z,27.87
2017-12-10T18:47:33.482Z,31.77
2017-12-10T18:50:01.052Z,19.80
2017-12-10T18:52:28.615Z,25.87
2017-12-10T18:54:56.257Z,28.63
2017-12-10T18:57:23.886Z,23.73
2017-12-10T18:59:51.474Z,24.10
2017-12-10T19:02:19.056Z,24.87
2017-12-10T19:04:48.282Z,20.80
2017-12-10T19:07:15.965Z,21.23
2017-12-10T19:09:43.515Z,20.53
2017-12-10T19:12:11.179Z,17.97
2017-12-10T19:14:39.689Z,21.60
2017-12-10T19:17:07.568Z,19.43
2017-12-10T19:19:35.488Z,13.20
2017-12-10T19:22:03.082Z,17.53
2017-12-10T19:24:30.778Z,10.00
2017-12-10T19:26:58.407Z,11.43
2017-12-10T19:29:26.747Z,10.07
2017-12-10T19:31:54.362Z,9.83
2017-12-10T19:34:21.974Z,10.33
2017-12-10T19:36:50.897Z,13.57
2017-12-10T19:39:19.460Z,6.47
2017-12-10T19:41:47.306Z,8.47
2017-12-10T19:44:14.961Z,8.53
2017-12-10T19:46:42.519Z,8.13
2017-12-10T19:49:10.163Z,8.43
2017-12-10T19:51:37.850Z,8.60
2017-12-10T19:54:05.458Z,13.13
2017-12-10T19:56:33.007Z,6.97
2017-12-10T19:59:01.347Z,7.00
2017-12-10T20:01:29.032Z,8.17
2017-12-10T20:03:59.569Z,8.53
2017-12-10T20:06:27.299Z,9.33
2017-12-10T20:08:54.937Z,9.17
2017-12-10T20:11:22.563Z,7.27
2017-12-10T20:13:50.905Z,9.27
2017-12-10T20:16:18.463Z,8.40
2017-12-10T20:18:46.128Z,11.10
2017-12-10T20:21:13.695Z,9.50
2017-12-10T20:23:41.555Z,9.70
2017-12-10T20:26:12.161Z,9.20
2017-12-10T20:28:39.782Z,14.83
2017-12-10T20:31:07.412Z,14.10
2017-12-10T20:33:35.092Z,13.00
2017-12-10T20:36:02.828Z,16.70
2017-12-10T20:38:30.409Z,19.67
2017-12-10T20:40:58.029Z,26.53
2017-12-10T20:43:25.691Z,30.27
2017-12-10T20:45:53.263Z,58.73
2017-12-10T20:48:20.909Z,41.97
2017-12-10T20:50:49.659Z,56.17
2017-12-10T20:53:17.278Z,58.30
2017-12-10T20:55:44.886Z,55.47
2017-12-10T20:58:12.490Z,56.43
2017-12-10T21:00:40.147Z,55.43
2017-12-10T21:03:08.817Z,54.57
2017-12-10T21:05:37.332Z,54.07
2017-12-10T21:08:04.906Z,53.87
2017-12-10T21:10:32.520Z,57.60
2017-12-10T21:13:00.128Z,53.20
2017-12-10T21:15:27.733Z,54.80
2017-12-10T21:17:55.386Z,52.97
2017-12-10T21:20:22.971Z,51.80
2017-12-10T21:22:51.188Z,68.83
2017-12-10T21:25:18.789Z,62.53
2017-12-10T21:27:46.490Z,54.60
2017-12-10T21:30:14.109Z,53.97
2017-12-10T21:32:41.697Z,51.47
2017-12-10T21:35:09.341Z,59.70
2017-12-10T21:37:36.942Z,58.17
2017-12-10T21:40:04.586Z,52.67
2017-12-10T21:42:32.158Z,65.47
2017-12-10T21:44:59.770Z,64.03
2017-12-10T21:47:27.472Z,70.83
2017-12-10T21:49:55.331Z,53.73
2017-12-10T21:52:22.911Z,57.60
2017-12-10T21:54:50.539Z,58.37
2017-12-10T21:57:18.130Z,54.67
2017-12-10T21:59:45.700Z,74.87
2017-12-10T22:02:13.323Z,71.10
2017-12-10T22:04:40.972Z,68.37
2017-12-10T22:07:08.624Z,64.20
2017-12-10T22:09:36.970Z,57.80
2017-12-10T22:12:04.583Z,55.87
2017-12-10T22:14:32.820Z,67.53
2017-12-10T22:17:01.487Z,62.10
2017-12-10T22:19:29.087Z,59.67
2017-12-10T22:21:57.208Z,57.80
2017-12-10T22:24:24.891Z,64.67
2017-12-10T22:26:52.704Z,73.63
2017-12-10T22:29:20.266Z,59.23
2017-12-10T22:31:47.871Z,59.27
2017-12-10T22:34:15.495Z,57.37
2017-12-10T22:36:43.051Z,52.10
2017-12-10T22:39:10.641Z,48.80
2017-12-10T22:41:38.196Z,59.27
2017-12-10T22:44:05.926Z,63.07
2017-12-10T22:46:33.529Z,57.67
2017-12-10T22:49:01.160Z,57.33
2017-12-10T22:51:28.780Z,53.57
2017-12-10T22:53:56.400Z,52.03
2017-12-10T22:56:23.970Z,45.10
2017-12-10T22:58:51.563Z,41.53
2017-12-10T23:01:19.283Z,45.43
2017-12-10T23:03:47.345Z,36.47
2017-12-10T23:06:15.075Z,51.43
2017-12-10T23:08:43.165Z,40.63
2017-12-10T23:11:11.608Z,38.83
2017-12-10T23:13:51.673Z,40.40
2017-12-10T23:16:25.112Z,35.73
2017-12-10T23:18:52.698Z,43.43
2017-12-10T23:21:20.337Z,39.77
2017-12-10T23:23:47.972Z,39.63
2017-12-10T23:26:15.602Z,35.87
2017-12-10T23:28:43.195Z,29.97
2017-12-10T23:31:10.776Z,22.33
2017-12-10T23:33:38.381Z,24.60
2017-12-10T23:36:06.063Z,23.67
2017-12-10T23:38:33.629Z,19.43
2017-12-10T23:41:01.238Z,18.10
2017-12-10T23:43:29.006Z,18.23
2017-12-10T23:45:57.052Z,15.67
2017-12-10T23:48:25.149Z,18.93
2017-12-10T23:50:54.172Z,16.00
2017-12-10T23:53:23.064Z,16.30
2017-12-10T23:55:50.697Z,14.90
2017-12-10T23:58:18.263Z,11.73
